North Cascades National Park, WA

4:15 AM PDT on August 28, 2014 (GMT -0700)
Skagit Regional | Change Station
CLOSE
Current Station
Airport
Location: Burlington,
Elevation: 144 ft
Nearby Weather Stations

Elev 144 ft 48.47 °N, 122.42 °W | Updated 20 minutes ago

Overcast
Overcast
61 °F
Feels Like 61 °F
N
9
Wind Variable Wind from SSW

Today
High -- | Low -- °F
--% Chance of Precip.
Yesterday
High -- | Low -- °F
Precip. -- in
6:17 AM 7:55 PM
Waxing Crescent, 7% visible
Pressure 30.07 in
Visibility 10.0 miles
Clouds Overcast 600 ft
Dew Point 59 °F
Humidity 94%
Rainfall 0.00 in
Snow Depth Not available.
UV 0 out of 12
Pollen 3.10 out of 12
PM2.5 Good
Flu Activity Not available.
METAR KBVS 281055Z AUTO 21008KT 10SM OVC006 16/15 A3007 RMK A01 P000

More Conditions Fewer Conditions

Pressure 30.07 in
Visibility 10.0 miles
Clouds Overcast 600 ft
Dew Point 59 °F
Humidity 94%
Rainfall 0.00 in
Snow Depth Not available.
UV 0 out of 12
Pollen 3.10 out of 12
PM2.5 Good
Flu Activity Not available.
METAR KBVS 281055Z AUTO 21008KT 10SM OVC006 16/15 A3007 RMK A01 P000

More Conditions Fewer Conditions

10-Day Weather Forecast

Almanac

Astronomy

Aug. 28, 2014 Rise Set
Actual Time 6:17 AM PDT 7:55 PM PDT
Civil Twilight 5:44 AM PDT 8:28 PM PDT
Nautical Twilight 5:04 AM PDT 9:08 PM PDT
Astronomical Twilight 4:19 AM PDT 9:51 PM PDT
Moon 9:32 AM PDT 9:02 PM PDT
Length of Visible Light 14h 43m
Length of Day
13h 37m
Tomorrow will be 3m 24s shorter.
Waxing Crescent, 7% of the Moon is Illuminated
Today
Waxing Crescent
Sep 2
First Quarter
Sep 8
Full
Sep 15
Last Quarter
Sep 24
New

Today's Extremes

State Highs State Lows

Community

WunderPhotos

Upload Photos

1,747,923 photos uploaded!

Nearby

Air Quality

  Air Quality AQ Index Pollutant
Yesterday Good
PM2.5
Current Good
PM2.5
Thursday Good
OZONE
Thursday Good
PM2.5
Friday Good
OZONE
Friday Good
PM2.5
Saturday Good
OZONE
Saturday Good
PM2.5

Snow Depth

Station Depth Elevation
Elbow Lake 0 in 3200 ft
Rainy Pass 0 in 4780 ft
Lyman Lake 2 in 5900 ft
Harts Pass 0 in 6500 ft
Alpine Meadows 0 in 3500 ft

Earthquake Activity

City Distance Mag. Time & Date
No recent earthquake activity has been reported nearby.
Minimum magnitude displayed is 2.5.

Coastal Water Temperatures

Place Temperature
No Stations Reporting

Nearby Weather Stations